N829GW KSGR-KELA
Flight info
| Callsign | N829GW |
|---|---|
| Flight time | 0h 27m |
| Altitude | 4000 |
| Route | DCT |
| Aircraft | C172/L-V/N |
Departure
| Time | 2026-04-28 23:05 |
|---|---|
| Airport | Sugar Land Regional Airport (KSGR) |
Arrival
| Time | 2026-04-28 23:33 |
|---|---|
| Airport | Eagle Lake Airport (KELA) |
| Time | Latitude | Longitude | Altitude | Speed | Heading |
|---|---|---|---|---|---|
| 2026-04-28 22:50 | 29.63240 | -95.65347 | 88 ft | 0 kts | 354° |
| 2026-04-28 22:52 | 29.63239 | -95.65347 | 88 ft | 0 kts | 354° |
| 2026-04-28 22:57 | 29.63238 | -95.65347 | 90 ft | 0 kts | 354° |
| 2026-04-28 22:57 | 29.63248 | -95.65359 | 87 ft | 5 kts | 266° |
| 2026-04-28 22:58 | 29.63219 | -95.65401 | 86 ft | 8 kts | 227° |
| 2026-04-28 22:58 | 29.63198 | -95.65457 | 86 ft | 9 kts | 256° |
| 2026-04-28 22:58 | 29.63190 | -95.65537 | 85 ft | 6 kts | 268° |
| 2026-04-28 22:58 | 29.63190 | -95.65538 | 85 ft | 0 kts | 266° |
| 2026-04-28 22:59 | 29.63189 | -95.65565 | 85 ft | 8 kts | 267° |
| 2026-04-28 22:59 | 29.63184 | -95.65639 | 93 ft | 13 kts | 265° |
| 2026-04-28 23:00 | 29.63205 | -95.65685 | 87 ft | 5 kts | 353° |
| 2026-04-28 23:00 | 29.63252 | -95.65689 | 87 ft | 7 kts | 353° |
| 2026-04-28 23:00 | 29.63267 | -95.65691 | 88 ft | 0 kts | 10° |
| 2026-04-28 23:01 | 29.63268 | -95.65689 | 90 ft | 0 kts | 82° |
| 2026-04-28 23:01 | 29.63260 | -95.65678 | 87 ft | 8 kts | 184° |
| 2026-04-28 23:01 | 29.63248 | -95.65690 | 87 ft | 0 kts | 235° |
| 2026-04-28 23:02 | 29.63243 | -95.65684 | 87 ft | 4 kts | 126° |
| 2026-04-28 23:02 | 29.63231 | -95.65680 | 89 ft | 2 kts | 206° |
| 2026-04-28 23:02 | 29.63215 | -95.65686 | 80 ft | 5 kts | 138° |
| 2026-04-28 23:03 | 29.63213 | -95.65683 | 87 ft | 0 kts | 114° |
| 2026-04-28 23:03 | 29.63221 | -95.65651 | 86 ft | 12 kts | 35° |
| 2026-04-28 23:03 | 29.63281 | -95.65691 | 88 ft | 5 kts | 318° |
| 2026-04-28 23:03 | 29.63294 | -95.65738 | 89 ft | 9 kts | 240° |
| 2026-04-28 23:04 | 29.63273 | -95.65753 | 89 ft | 0 kts | 178° |
| 2026-04-28 23:04 | 29.63167 | -95.65744 | 91 ft | 38 kts | 175° |
| 2026-04-28 23:04 | 29.62783 | -95.65714 | 153 ft | 65 kts | 177° |
| 2026-04-28 23:05 | 29.62317 | -95.65677 | 319 ft | 70 kts | 177° |
| 2026-04-28 23:05 | 29.61824 | -95.65632 | 498 ft | 70 kts | 180° |
| 2026-04-28 23:05 | 29.61339 | -95.65608 | 697 ft | 72 kts | 179° |
| 2026-04-28 23:05 | 29.60820 | -95.65631 | 919 ft | 75 kts | 198° |
| 2026-04-28 23:06 | 29.60481 | -95.66095 | 1058 ft | 87 kts | 249° |
| 2026-04-28 23:06 | 29.60511 | -95.66819 | 1194 ft | 97 kts | 278° |
| 2026-04-28 23:06 | 29.60765 | -95.67512 | 1443 ft | 94 kts | 283° |
| 2026-04-28 23:06 | 29.61065 | -95.68208 | 1624 ft | 99 kts | 285° |
| 2026-04-28 23:07 | 29.61364 | -95.68905 | 1845 ft | 96 kts | 284° |
| 2026-04-28 23:07 | 29.61614 | -95.69612 | 2045 ft | 94 kts | 279° |
| 2026-04-28 23:07 | 29.61790 | -95.70310 | 2257 ft | 88 kts | 271° |
| 2026-04-28 23:07 | 29.61903 | -95.71022 | 2399 ft | 92 kts | 272° |
| 2026-04-28 23:08 | 29.62037 | -95.71733 | 2568 ft | 91 kts | 269° |
| 2026-04-28 23:08 | 29.62131 | -95.72448 | 2764 ft | 84 kts | 263° |
| 2026-04-28 23:08 | 29.62168 | -95.73089 | 2957 ft | 82 kts | 258° |
| 2026-04-28 23:08 | 29.62159 | -95.73736 | 3158 ft | 77 kts | 258° |
| 2026-04-28 23:09 | 29.62181 | -95.74344 | 3334 ft | 79 kts | 262° |
| 2026-04-28 23:09 | 29.62224 | -95.74969 | 3505 ft | 76 kts | 257° |
| 2026-04-28 23:09 | 29.62173 | -95.75575 | 3647 ft | 78 kts | 252° |
| 2026-04-28 23:09 | 29.62088 | -95.76176 | 3804 ft | 73 kts | 247° |
| 2026-04-28 23:10 | 29.61992 | -95.76765 | 3908 ft | 78 kts | 250° |
| 2026-04-28 23:10 | 29.61931 | -95.77387 | 4051 ft | 80 kts | 254° |
| 2026-04-28 23:10 | 29.61854 | -95.78049 | 4122 ft | 85 kts | 254° |
| 2026-04-28 23:10 | 29.61843 | -95.78716 | 4262 ft | 80 kts | 256° |
| 2026-04-28 23:11 | 29.61807 | -95.79387 | 4269 ft | 89 kts | 257° |
| 2026-04-28 23:11 | 29.61763 | -95.80110 | 4269 ft | 92 kts | 257° |
| 2026-04-28 23:11 | 29.61711 | -95.80867 | 4215 ft | 97 kts | 257° |
| 2026-04-28 23:11 | 29.61651 | -95.81655 | 4151 ft | 100 kts | 257° |
| 2026-04-28 23:12 | 29.61598 | -95.82462 | 4091 ft | 101 kts | 258° |
| 2026-04-28 23:12 | 29.61549 | -95.83254 | 4095 ft | 99 kts | 257° |
| 2026-04-28 23:12 | 29.61504 | -95.84047 | 4093 ft | 100 kts | 257° |
| 2026-04-28 23:12 | 29.61466 | -95.84841 | 4091 ft | 100 kts | 258° |
| 2026-04-28 23:13 | 29.61429 | -95.85637 | 4094 ft | 100 kts | 257° |
| 2026-04-28 23:13 | 29.61388 | -95.86433 | 4092 ft | 100 kts | 257° |
| 2026-04-28 23:13 | 29.61367 | -95.87239 | 4088 ft | 102 kts | 260° |
| 2026-04-28 23:13 | 29.61393 | -95.88058 | 4098 ft | 103 kts | 263° |
| 2026-04-28 23:14 | 29.61441 | -95.88881 | 4097 ft | 103 kts | 263° |
| 2026-04-28 23:14 | 29.61491 | -95.89688 | 4092 ft | 99 kts | 263° |
| 2026-04-28 23:14 | 29.61539 | -95.90453 | 4090 ft | 94 kts | 263° |
| 2026-04-28 23:14 | 29.61582 | -95.91191 | 4084 ft | 90 kts | 263° |
| 2026-04-28 23:15 | 29.61626 | -95.91893 | 4088 ft | 88 kts | 263° |
| 2026-04-28 23:15 | 29.61673 | -95.92607 | 4085 ft | 91 kts | 262° |
| 2026-04-28 23:15 | 29.61707 | -95.93343 | 4087 ft | 93 kts | 262° |
| 2026-04-28 23:15 | 29.61734 | -95.94088 | 4083 ft | 93 kts | 262° |
| 2026-04-28 23:16 | 29.61760 | -95.94825 | 4084 ft | 91 kts | 262° |
| 2026-04-28 23:16 | 29.61785 | -95.95553 | 4090 ft | 92 kts | 262° |
| 2026-04-28 23:16 | 29.61809 | -95.96290 | 4090 ft | 93 kts | 262° |
| 2026-04-28 23:16 | 29.61820 | -95.97039 | 4088 ft | 94 kts | 259° |
| 2026-04-28 23:17 | 29.61801 | -95.97789 | 4088 ft | 93 kts | 258° |
| 2026-04-28 23:17 | 29.61783 | -95.98525 | 4083 ft | 91 kts | 258° |
| 2026-04-28 23:17 | 29.61763 | -95.99249 | 4082 ft | 90 kts | 258° |
| 2026-04-28 23:17 | 29.61735 | -95.99972 | 4081 ft | 91 kts | 256° |
| 2026-04-28 23:18 | 29.61681 | -96.00703 | 4080 ft | 93 kts | 255° |
| 2026-04-28 23:18 | 29.61624 | -96.01431 | 4080 ft | 93 kts | 255° |
| 2026-04-28 23:18 | 29.61559 | -96.02166 | 4079 ft | 92 kts | 255° |
| 2026-04-28 23:18 | 29.61491 | -96.02898 | 4080 ft | 92 kts | 255° |
| 2026-04-28 23:19 | 29.61425 | -96.03640 | 4078 ft | 92 kts | 255° |
| 2026-04-28 23:19 | 29.61364 | -96.04364 | 4075 ft | 92 kts | 255° |
| 2026-04-28 23:19 | 29.61303 | -96.05097 | 4076 ft | 92 kts | 255° |
| 2026-04-28 23:19 | 29.61239 | -96.05829 | 4072 ft | 92 kts | 255° |
| 2026-04-28 23:20 | 29.61177 | -96.06559 | 4071 ft | 92 kts | 255° |
| 2026-04-28 23:20 | 29.61116 | -96.07291 | 4072 ft | 93 kts | 255° |
| 2026-04-28 23:20 | 29.61056 | -96.08032 | 4074 ft | 94 kts | 255° |
| 2026-04-28 23:20 | 29.60991 | -96.08784 | 4077 ft | 96 kts | 255° |
| 2026-04-28 23:21 | 29.60928 | -96.09550 | 4077 ft | 97 kts | 255° |
| 2026-04-28 23:21 | 29.60872 | -96.10325 | 4084 ft | 97 kts | 255° |
| 2026-04-28 23:21 | 29.60819 | -96.11105 | 4083 ft | 99 kts | 255° |
| 2026-04-28 23:21 | 29.60763 | -96.11892 | 4085 ft | 99 kts | 255° |
| 2026-04-28 23:22 | 29.60706 | -96.12675 | 4086 ft | 98 kts | 255° |
| 2026-04-28 23:22 | 29.60648 | -96.13445 | 4083 ft | 95 kts | 255° |
| 2026-04-28 23:22 | 29.60587 | -96.14194 | 4084 ft | 93 kts | 255° |
| 2026-04-28 23:22 | 29.60519 | -96.14927 | 4084 ft | 92 kts | 255° |
| 2026-04-28 23:23 | 29.60459 | -96.15659 | 4085 ft | 92 kts | 256° |
| 2026-04-28 23:23 | 29.60414 | -96.16393 | 4086 ft | 92 kts | 257° |
| 2026-04-28 23:23 | 29.60401 | -96.17138 | 4082 ft | 94 kts | 260° |
| 2026-04-28 23:23 | 29.60423 | -96.17900 | 4088 ft | 97 kts | 261° |
| 2026-04-28 23:24 | 29.60436 | -96.18680 | 4092 ft | 98 kts | 259° |
| 2026-04-28 23:24 | 29.60431 | -96.19469 | 4096 ft | 99 kts | 258° |
| 2026-04-28 23:24 | 29.60415 | -96.20255 | 4100 ft | 98 kts | 257° |
| 2026-04-28 23:24 | 29.60394 | -96.21035 | 4101 ft | 98 kts | 257° |
| 2026-04-28 23:25 | 29.60369 | -96.21841 | 3994 ft | 101 kts | 258° |
| 2026-04-28 23:25 | 29.60345 | -96.22634 | 3871 ft | 99 kts | 258° |
| 2026-04-28 23:25 | 29.60318 | -96.23414 | 3750 ft | 97 kts | 258° |
| 2026-04-28 23:25 | 29.60291 | -96.24186 | 3625 ft | 96 kts | 257° |
| 2026-04-28 23:26 | 29.60264 | -96.24951 | 3506 ft | 96 kts | 257° |
| 2026-04-28 23:26 | 29.60237 | -96.25713 | 3387 ft | 95 kts | 257° |
| 2026-04-28 23:26 | 29.60210 | -96.26475 | 3267 ft | 96 kts | 257° |
| 2026-04-28 23:26 | 29.60183 | -96.27227 | 3142 ft | 96 kts | 257° |
| 2026-04-28 23:27 | 29.60155 | -96.27993 | 3030 ft | 97 kts | 258° |
| 2026-04-28 23:27 | 29.60127 | -96.28776 | 2910 ft | 99 kts | 258° |
| 2026-04-28 23:27 | 29.60098 | -96.29583 | 2792 ft | 103 kts | 258° |
| 2026-04-28 23:27 | 29.60068 | -96.30415 | 2671 ft | 106 kts | 258° |
| 2026-04-28 23:28 | 29.60038 | -96.31267 | 2556 ft | 108 kts | 258° |
| 2026-04-28 23:28 | 29.60008 | -96.32127 | 2430 ft | 107 kts | 257° |
| 2026-04-28 23:28 | 29.59942 | -96.32962 | 2305 ft | 99 kts | 238° |
| 2026-04-28 23:28 | 29.59402 | -96.33167 | 2105 ft | 102 kts | 152° |
| 2026-04-28 23:29 | 29.59084 | -96.32450 | 2073 ft | 105 kts | 108° |
| 2026-04-28 23:29 | 29.59095 | -96.31620 | 2076 ft | 102 kts | 95° |
| 2026-04-28 23:29 | 29.59277 | -96.30821 | 2042 ft | 109 kts | 68° |
| 2026-04-28 23:29 | 29.59872 | -96.30228 | 2020 ft | 117 kts | 28° |
| 2026-04-28 23:30 | 29.60649 | -96.30054 | 2002 ft | 114 kts | 357° |
| 2026-04-28 23:30 | 29.61422 | -96.30119 | 1956 ft | 108 kts | 354° |
| 2026-04-28 23:30 | 29.62184 | -96.30191 | 1892 ft | 110 kts | 352° |
| 2026-04-28 23:30 | 29.62878 | -96.30463 | 1870 ft | 103 kts | 315° |
| 2026-04-28 23:31 | 29.63228 | -96.31083 | 1815 ft | 89 kts | 278° |
| 2026-04-28 23:31 | 29.63261 | -96.31772 | 1683 ft | 85 kts | 249° |
| 2026-04-28 23:31 | 29.63029 | -96.32323 | 1479 ft | 71 kts | 213° |
| 2026-04-28 23:31 | 29.62560 | -96.32537 | 1246 ft | 74 kts | 188° |
| 2026-04-28 23:32 | 29.62050 | -96.32556 | 1018 ft | 75 kts | 174° |
| 2026-04-28 23:32 | 29.61549 | -96.32463 | 703 ft | 71 kts | 173° |
| 2026-04-28 23:32 | 29.61064 | -96.32358 | 413 ft | 70 kts | 178° |
| 2026-04-28 23:32 | 29.60615 | -96.32299 | 228 ft | 58 kts | 173° |
| 2026-04-28 23:33 | 29.60267 | -96.32242 | 186 ft | 41 kts | 174° |
| 2026-04-28 23:33 | 29.60040 | -96.32205 | 197 ft | 27 kts | 172° |
| 2026-04-28 23:33 | 29.59887 | -96.32178 | 187 ft | 19 kts | 171° |
| 2026-04-28 23:33 | 29.59763 | -96.32154 | 187 ft | 18 kts | 171° |
| 2026-04-28 23:34 | 29.59639 | -96.32130 | 189 ft | 17 kts | 172° |
| 2026-04-28 23:34 | 29.59546 | -96.32113 | 191 ft | 12 kts | 172° |
| 2026-04-28 23:34 | 29.59461 | -96.32107 | 189 ft | 6 kts | 207° |
| 2026-04-28 23:34 | 29.59450 | -96.32116 | 189 ft | 2 kts | 213° |
| 2026-04-28 23:35 | 29.59445 | -96.32122 | 189 ft | 0 kts | 226° |
| 2026-04-28 23:35 | 29.59438 | -96.32128 | 190 ft | 3 kts | 226° |
| 2026-04-28 23:35 | 29.59434 | -96.32161 | 188 ft | 8 kts | 306° |
| 2026-04-28 23:36 | 29.59456 | -96.32207 | 188 ft | 7 kts | 250° |
| 2026-04-28 23:36 | 29.59457 | -96.32239 | 188 ft | 0 kts | 296° |
| 2026-04-28 23:36 | 29.59456 | -96.32239 | 188 ft | 0 kts | 296° |
| 2026-04-28 23:38 | 29.59456 | -96.32238 | 188 ft | 0 kts | 296° |